createdAt,value
2018-08-09T00:00:12.389Z,101354.28
2018-08-09T00:02:41.472Z,101354.95
2018-08-09T00:05:10.660Z,101355.56
2018-08-09T00:07:39.615Z,101353.68
2018-08-09T00:10:08.609Z,101349.73
2018-08-09T00:12:37.923Z,101349.54
2018-08-09T00:15:07.070Z,101350.66
2018-08-09T00:17:35.947Z,101352.31
2018-08-09T00:20:05.240Z,101352.78
2018-08-09T00:22:34.124Z,101355.11
2018-08-09T00:25:03.024Z,101363.83
2018-08-09T00:27:31.964Z,101349.67
2018-08-09T00:30:01.277Z,101350.18
2018-08-09T00:32:30.116Z,101354.70
2018-08-09T00:34:59.268Z,101351.73
2018-08-09T00:37:28.218Z,101350.66
2018-08-09T00:39:57.898Z,101348.64
2018-08-09T00:42:26.832Z,101351.93
2018-08-09T00:44:55.951Z,101354.34
2018-08-09T00:47:24.837Z,101354.34
2018-08-09T00:49:54.088Z,101356.89
2018-08-09T00:52:23.028Z,101353.84
2018-08-09T00:54:52.061Z,101352.27
2018-08-09T00:57:21.431Z,101349.11
2018-08-09T00:59:50.295Z,101351.95
2018-08-09T01:02:19.240Z,101351.14
2018-08-09T01:04:48.380Z,101352.80
2018-08-09T01:07:17.711Z,101348.03
2018-08-09T01:09:46.602Z,101359.41
2018-08-09T01:12:15.552Z,101358.64
2018-08-09T01:14:44.423Z,101355.81
2018-08-09T01:17:13.851Z,101367.14
2018-08-09T01:19:42.976Z,101363.59
2018-08-09T01:22:12.040Z,101365.24
2018-08-09T01:24:40.953Z,101368.22
2018-08-09T01:27:10.474Z,101366.23
2018-08-09T01:29:40.763Z,101365.91
2018-08-09T01:32:10.341Z,101369.34
2018-08-09T01:34:39.222Z,101368.87
2018-08-09T01:37:08.103Z,101365.43
2018-08-09T01:39:37.329Z,101364.53
2018-08-09T01:42:17.010Z,101362.41
2018-08-09T01:44:45.977Z,101355.61
2018-08-09T01:47:14.868Z,101355.20
2018-08-09T01:49:44.012Z,101356.80
2018-08-09T01:52:12.976Z,101348.92
2018-08-09T01:54:42.183Z,101347.65
2018-08-09T01:57:11.108Z,101346.94
2018-08-09T01:59:39.978Z,101351.56
2018-08-09T02:02:08.988Z,101349.11
2018-08-09T02:04:37.885Z,101356.47
2018-08-09T02:07:06.683Z,101354.48
2018-08-09T02:09:35.615Z,101355.30
2018-08-09T02:12:05.626Z,101359.11
2018-08-09T02:14:34.992Z,101361.42
2018-08-09T02:17:04.008Z,101368.49
2018-08-09T02:19:33.213Z,101359.86
2018-08-09T02:22:02.351Z,101364.30
2018-08-09T02:24:31.190Z,101368.06
2018-08-09T02:27:00.292Z,101366.88
2018-08-09T02:29:29.626Z,101371.97
2018-08-09T02:31:58.815Z,101370.13
2018-08-09T02:34:27.697Z,101371.12
2018-08-09T02:36:57.207Z,101384.89
2018-08-09T02:39:26.093Z,101378.86
2018-08-09T02:41:55.246Z,101376.98
2018-08-09T02:44:24.172Z,101375.47
2018-08-09T02:46:53.158Z,101380.38
2018-08-09T02:49:22.228Z,101391.14
2018-08-09T02:51:51.959Z,101380.53
2018-08-09T02:54:21.130Z,101386.28
2018-08-09T02:56:50.074Z,101387.94
2018-08-09T02:59:19.651Z,101391.46
2018-08-09T03:01:48.648Z,101395.80
2018-08-09T03:04:17.925Z,101396.34
2018-08-09T03:06:46.905Z,101404.50
2018-08-09T03:09:16.055Z,101395.53
2018-08-09T03:11:45.000Z,101393.31
2018-08-09T03:14:13.992Z,101398.83
2018-08-09T03:16:42.876Z,101402.94
2018-08-09T03:19:12.004Z,101403.06
2018-08-09T03:21:41.060Z,101411.00
2018-08-09T03:24:10.144Z,101413.23
2018-08-09T03:26:39.020Z,101419.80
2018-08-09T03:29:08.321Z,101410.08
2018-08-09T03:31:37.508Z,101413.42
2018-08-09T03:34:06.636Z,101411.98
2018-08-09T03:36:35.499Z,101423.67
2018-08-09T03:39:06.632Z,101413.68
2018-08-09T03:41:35.877Z,101418.39
2018-08-09T03:44:04.997Z,101419.27
2018-08-09T03:46:33.952Z,101421.66
2018-08-09T03:49:02.924Z,101417.70
2018-08-09T03:51:32.018Z,101427.84
2018-08-09T03:54:00.903Z,101429.20
2018-08-09T03:56:30.019Z,101427.81
2018-08-09T03:58:59.440Z,101429.38
2018-08-09T04:01:28.440Z,101437.72
2018-08-09T04:03:57.853Z,101440.44
2018-08-09T04:06:26.825Z,101443.95
2018-08-09T04:08:56.092Z,101442.68
2018-08-09T04:11:25.277Z,101444.63
2018-08-09T04:13:54.591Z,101443.81
2018-08-09T04:16:23.517Z,101449.61
2018-08-09T04:18:52.519Z,101452.15
2018-08-09T04:21:21.420Z,101454.13
2018-08-09T04:23:50.532Z,101449.00
2018-08-09T04:26:19.763Z,101448.47
2018-08-09T04:28:48.949Z,101452.39
2018-08-09T04:31:17.843Z,101456.30
2018-08-09T04:33:46.719Z,101461.47
2018-08-09T04:36:15.555Z,101456.59
2018-08-09T04:38:44.755Z,101461.50
